createdAt,value
2022-08-19T00:02:10.780Z,26.93
2022-08-19T00:04:40.678Z,26.95
2022-08-19T00:07:09.783Z,26.97
2022-08-19T00:09:40.933Z,26.98
2022-08-19T00:12:10.903Z,26.95
2022-08-19T00:14:41.413Z,26.92
2022-08-19T00:17:11.291Z,26.89
2022-08-19T00:19:49.414Z,26.89
2022-08-19T00:22:19.358Z,26.85
2022-08-19T00:24:52.236Z,26.76
2022-08-19T00:27:25.780Z,26.66
2022-08-19T00:29:59.801Z,26.56
2022-08-19T00:32:55.926Z,26.52
2022-08-19T00:35:28.048Z,26.45
2022-08-19T00:37:57.335Z,26.36
2022-08-19T00:40:27.157Z,26.28
2022-08-19T00:42:56.599Z,26.15
2022-08-19T00:45:31.084Z,26.07
2022-08-19T00:48:04.658Z,26.03
2022-08-19T00:50:34.521Z,25.96
2022-08-19T00:53:05.676Z,25.98
2022-08-19T00:55:35.462Z,26.06
2022-08-19T00:58:07.937Z,26.14
2022-08-19T01:00:37.948Z,26.20
2022-08-19T01:03:10.556Z,26.22
2022-08-19T01:05:48.229Z,26.25
2022-08-19T01:08:17.624Z,26.30
2022-08-19T01:10:49.701Z,26.32
2022-08-19T01:13:21.178Z,26.24
2022-08-19T01:16:03.550Z,26.17
2022-08-19T01:18:36.905Z,26.08
2022-08-19T01:21:11.811Z,25.99
2022-08-19T01:23:44.017Z,26.00
2022-08-19T01:26:17.990Z,26.07
2022-08-19T01:28:52.232Z,26.14
2022-08-19T01:31:27.049Z,26.20
2022-08-19T01:33:59.021Z,26.25
2022-08-19T01:36:32.263Z,26.26
2022-08-19T01:39:07.376Z,26.24
2022-08-19T01:41:36.641Z,26.19
2022-08-19T01:44:18.871Z,26.21
2022-08-19T01:46:49.917Z,26.21
2022-08-19T01:49:29.023Z,26.16
2022-08-19T01:52:07.120Z,26.11
2022-08-19T01:54:36.656Z,26.04
2022-08-19T01:57:09.910Z,25.96
2022-08-19T01:59:43.092Z,25.95
2022-08-19T02:02:12.480Z,25.97
2022-08-19T02:04:42.100Z,25.99
2022-08-19T02:07:11.384Z,25.98
2022-08-19T02:09:40.574Z,26.02
2022-08-19T02:12:10.238Z,26.06
2022-08-19T02:14:39.550Z,26.08
2022-08-19T02:17:09.323Z,26.11
2022-08-19T02:19:39.353Z,26.11
2022-08-19T02:22:10.313Z,26.05
2022-08-19T02:24:39.788Z,26.03
2022-08-19T02:27:09.332Z,26.00
2022-08-19T02:29:38.770Z,25.94
2022-08-19T02:32:10.459Z,25.92
2022-08-19T02:34:39.778Z,25.97
2022-08-19T02:37:29.346Z,25.99
2022-08-19T02:39:59.400Z,26.01
2022-08-19T02:42:30.810Z,25.96
2022-08-19T02:45:01.135Z,25.91
2022-08-19T02:47:30.095Z,25.74
2022-08-19T02:49:59.297Z,25.60
2022-08-19T02:52:28.734Z,25.50
2022-08-19T02:54:57.933Z,25.44
2022-08-19T02:57:27.132Z,25.43
2022-08-19T02:59:56.346Z,25.41
2022-08-19T03:02:25.852Z,25.49
2022-08-19T03:04:55.466Z,25.59
2022-08-19T03:07:25.503Z,25.64
2022-08-19T03:09:55.033Z,25.68
2022-08-19T03:12:24.536Z,25.75
2022-08-19T03:14:54.012Z,25.77
2022-08-19T03:17:23.961Z,25.82
2022-08-19T03:19:52.957Z,25.86
2022-08-19T03:22:22.999Z,25.90
2022-08-19T03:24:54.175Z,25.87
2022-08-19T03:27:23.531Z,25.77
2022-08-19T03:29:55.414Z,25.77
2022-08-19T03:32:32.629Z,25.75
2022-08-19T03:35:04.305Z,25.69
2022-08-19T03:37:33.562Z,25.70
2022-08-19T03:40:04.216Z,25.71
2022-08-19T03:42:49.028Z,25.70
2022-08-19T03:45:22.793Z,25.75
2022-08-19T03:47:56.059Z,25.79
2022-08-19T03:50:25.798Z,25.81
2022-08-19T03:52:55.070Z,25.78
2022-08-19T03:55:27.170Z,25.77
2022-08-19T03:57:59.260Z,25.67
2022-08-19T04:00:33.914Z,25.49
2022-08-19T04:03:05.061Z,25.35
2022-08-19T04:05:34.330Z,25.27
2022-08-19T04:08:14.205Z,25.12
2022-08-19T04:10:48.538Z,25.13
2022-08-19T04:13:28.168Z,25.15
2022-08-19T04:16:02.682Z,25.21
2022-08-19T04:18:36.511Z,25.25
2022-08-19T04:21:07.423Z,25.28
2022-08-19T04:23:43.197Z,25.34
2022-08-19T04:26:27.533Z,25.37
2022-08-19T04:41:23.305Z,25.95
2022-08-19T04:43:52.757Z,26.17
2022-08-19T04:46:39.352Z,26.19
2022-08-19T04:49:13.061Z,26.24
2022-08-19T04:51:44.866Z,26.26
2022-08-19T04:54:14.503Z,26.28
2022-08-19T04:56:50.353Z,26.28
2022-08-19T04:59:20.838Z,26.14
2022-08-19T05:01:51.221Z,26.05
2022-08-19T05:04:25.432Z,25.98
2022-08-19T05:07:00.900Z,25.99
2022-08-19T05:09:33.055Z,25.94
2022-08-19T05:12:28.911Z,25.82
2022-08-19T05:14:58.850Z,25.66
2022-08-19T05:17:32.330Z,25.63
2022-08-19T05:20:26.666Z,25.68
2022-08-19T05:22:56.237Z,25.73
2022-08-19T05:25:26.459Z,25.75
2022-08-19T05:27:58.954Z,25.78
2022-08-19T05:30:46.115Z,25.78
2022-08-19T05:33:16.175Z,25.79
2022-08-19T05:35:46.779Z,25.84
2022-08-19T05:38:19.064Z,25.87
2022-08-19T05:40:55.826Z,25.89
2022-08-19T05:43:30.271Z,25.92
2022-08-19T05:46:05.608Z,25.95
2022-08-19T05:48:41.003Z,25.99
2022-08-19T05:51:13.428Z,26.04
2022-08-19T05:53:51.825Z,26.07
2022-08-19T05:56:24.297Z,26.10
2022-08-19T05:58:56.967Z,26.11
2022-08-19T06:01:31.172Z,26.08
2022-08-19T06:04:04.078Z,26.06
2022-08-19T06:06:38.063Z,26.09
2022-08-19T06:09:13.356Z,26.09
2022-08-19T06:11:50.136Z,26.06
2022-08-19T06:14:31.252Z,26.06
2022-08-19T06:18:35.364Z,26.08
2022-08-19T06:31:02.842Z,26.31
2022-08-19T06:33:50.157Z,26.39
2022-08-19T06:36:33.875Z,26.47
2022-08-19T06:39:08.990Z,26.54
2022-08-19T06:41:55.452Z,26.59
2022-08-19T06:44:42.483Z,26.61
2022-08-19T06:47:23.397Z,26.64
2022-08-19T06:50:03.836Z,26.69
2022-08-19T06:52:39.554Z,26.75
2022-08-19T06:55:14.361Z,26.80
2022-08-19T06:57:49.341Z,26.84
2022-08-19T07:00:22.175Z,26.90
2022-08-19T07:03:00.128Z,26.95
2022-08-19T07:05:45.575Z,27.01
2022-08-19T07:08:18.693Z,27.08
2022-08-19T07:10:51.556Z,27.14
2022-08-19T07:13:25.034Z,27.18
2022-08-19T07:15:57.944Z,27.23
2022-08-19T07:18:30.540Z,27.28
2022-08-19T07:21:09.496Z,27.34
2022-08-19T07:23:43.713Z,27.38
2022-08-19T07:26:20.032Z,27.42
2022-08-19T07:29:01.500Z,27.48
2022-08-19T07:31:38.044Z,27.53
2022-08-19T07:34:15.866Z,27.58
2022-08-19T07:36:50.527Z,27.63
2022-08-19T07:39:28.809Z,27.69
2022-08-19T07:42:03.348Z,27.74
2022-08-19T07:44:36.381Z,27.80
2022-08-19T07:47:50.229Z,27.86
2022-08-19T07:50:19.578Z,27.92
2022-08-19T07:52:55.340Z,27.97
2022-08-19T07:55:43.536Z,28.03
2022-08-19T07:58:22.604Z,28.08
2022-08-19T08:00:58.016Z,28.14
2022-08-19T08:03:49.636Z,28.20
2022-08-19T08:06:39.958Z,28.26
2022-08-19T08:12:17.969Z,28.35
2022-08-19T08:15:42.939Z,28.40
2022-08-19T08:18:50.672Z,28.45
2022-08-19T08:21:51.003Z,28.51
2022-08-19T08:24:39.058Z,28.55
2022-08-19T08:27:13.058Z,28.60
2022-08-19T08:29:45.891Z,28.65
2022-08-19T08:32:18.609Z,28.70
2022-08-19T08:34:51.803Z,28.76
2022-08-19T08:37:28.247Z,28.80
2022-08-19T08:40:11.291Z,28.84
2022-08-19T08:43:10.999Z,28.89
2022-08-19T08:45:54.711Z,28.93
2022-08-19T08:48:38.754Z,28.98
2022-08-19T08:51:20.188Z,29.00
2022-08-19T08:54:04.723Z,29.04
2022-08-19T08:56:41.460Z,29.09
2022-08-19T08:59:22.995Z,29.12
2022-08-19T09:06:14.625Z,29.20
2022-08-19T09:09:35.444Z,29.26
2022-08-19T09:12:30.504Z,29.32
2022-08-19T09:15:36.648Z,29.36
2022-08-19T09:18:32.665Z,29.40
2022-08-19T09:18:52.859Z,29.16
2022-08-19T09:21:14.249Z,29.44
2022-08-19T09:26:53.615Z,29.54
2022-08-19T09:29:42.627Z,29.58
2022-08-19T10:19:56.545Z,31.11
2022-08-19T10:22:40.430Z,31.19
2022-08-19T10:25:22.195Z,31.18
2022-08-19T10:27:56.686Z,31.17
2022-08-19T10:48:08.047Z,31.56
2022-08-19T10:51:09.014Z,31.66
2022-08-19T10:54:00.300Z,31.67
2022-08-19T10:58:04.144Z,31.67
2022-08-19T11:00:37.503Z,31.69
2022-08-19T11:03:16.495Z,31.72
2022-08-19T11:05:57.841Z,31.75
2022-08-19T11:08:35.371Z,31.76
2022-08-19T11:11:13.967Z,31.77
2022-08-19T11:13:54.162Z,31.78
2022-08-19T11:16:26.775Z,31.81
2022-08-19T11:19:03.153Z,31.83
2022-08-19T11:21:39.187Z,31.86
2022-08-19T11:24:15.962Z,31.90
2022-08-19T11:27:02.689Z,31.93
2022-08-19T11:29:53.108Z,31.95
2022-08-19T11:32:49.247Z,32.00
2022-08-19T11:39:05.800Z,32.12
2022-08-19T11:41:37.302Z,32.13
2022-08-19T11:44:08.171Z,32.15
2022-08-19T11:46:50.110Z,32.22
2022-08-19T11:49:25.548Z,32.30
2022-08-19T11:54:53.186Z,32.44
2022-08-19T11:57:27.970Z,32.49
2022-08-19T12:00:15.594Z,32.53
2022-08-19T12:03:00.110Z,32.58
2022-08-19T12:05:45.023Z,32.65
2022-08-19T12:09:04.188Z,32.73
2022-08-19T12:11:34.683Z,32.87
2022-08-19T12:14:04.176Z,32.97
2022-08-19T12:16:36.213Z,33.09
2022-08-19T12:19:07.992Z,33.20
2022-08-19T12:21:39.838Z,33.30
2022-08-19T12:24:09.423Z,33.37
2022-08-19T12:26:53.259Z,33.44
2022-08-19T12:29:30.193Z,33.53
2022-08-19T12:32:01.743Z,33.62
2022-08-19T12:34:32.125Z,33.70
2022-08-19T12:37:04.124Z,33.75
2022-08-19T12:39:52.917Z,33.82
2022-08-19T12:42:29.773Z,33.90
2022-08-19T12:45:06.776Z,33.99
2022-08-19T12:47:54.671Z,34.07
2022-08-19T12:50:32.115Z,34.09
2022-08-19T12:53:08.445Z,34.23
2022-08-19T12:56:00.743Z,34.38
2022-08-19T12:58:31.587Z,34.42
2022-08-19T13:01:23.191Z,34.41
2022-08-19T13:04:12.411Z,34.38
2022-08-19T13:07:22.252Z,34.48
2022-08-19T13:09:55.655Z,34.68
2022-08-19T13:12:44.874Z,34.96
2022-08-19T13:15:24.389Z,35.24
2022-08-19T13:18:02.675Z,35.47
2022-08-19T13:20:38.064Z,35.71
2022-08-19T13:23:10.133Z,35.91
2022-08-19T13:25:42.575Z,36.16
2022-08-19T13:28:13.424Z,36.42
2022-08-19T13:31:09.624Z,36.65
2022-08-19T13:33:39.028Z,36.73
2022-08-19T13:36:09.058Z,36.83
2022-08-19T13:38:44.300Z,36.96
2022-08-19T13:41:24.666Z,37.22
2022-08-19T13:43:54.689Z,37.52
2022-08-19T13:46:24.126Z,37.86
2022-08-19T13:48:53.527Z,38.16
2022-08-19T13:51:27.342Z,38.46
2022-08-19T13:53:57.005Z,38.78
2022-08-19T13:56:27.835Z,39.00
2022-08-19T13:58:59.458Z,39.18
2022-08-19T14:01:32.633Z,39.17
2022-08-19T14:04:06.317Z,39.15
2022-08-19T14:06:36.143Z,39.16
2022-08-19T14:09:06.177Z,39.15
2022-08-19T14:11:35.791Z,39.26
2022-08-19T14:14:07.533Z,39.44
2022-08-19T14:16:41.436Z,39.62
2022-08-19T14:19:11.360Z,39.77
2022-08-19T14:21:48.255Z,39.84
2022-08-19T14:24:17.630Z,39.96
2022-08-19T14:26:49.343Z,40.12
2022-08-19T14:29:18.749Z,40.18
2022-08-19T14:31:56.642Z,40.24
2022-08-19T14:34:25.848Z,40.36
2022-08-19T14:36:54.976Z,40.49
2022-08-19T14:39:24.816Z,40.58
2022-08-19T14:41:55.230Z,40.53
2022-08-19T14:44:25.557Z,40.40
2022-08-19T14:46:54.739Z,40.25
2022-08-19T14:49:34.733Z,40.08
2022-08-19T14:52:05.483Z,40.05
2022-08-19T14:54:34.855Z,40.11
2022-08-19T14:57:04.807Z,40.18
2022-08-19T14:59:36.364Z,40.19
2022-08-19T15:02:33.575Z,40.26
2022-08-19T15:09:13.560Z,40.40
2022-08-19T15:12:33.531Z,40.42
2022-08-19T15:18:57.334Z,40.58
2022-08-19T15:21:31.781Z,40.62
2022-08-19T15:28:53.463Z,40.67
2022-08-19T15:31:17.873Z,40.53
2022-08-19T15:33:56.758Z,40.53
2022-08-19T15:36:38.099Z,40.60
2022-08-19T15:39:09.593Z,40.65
2022-08-19T15:41:40.635Z,40.66
2022-08-19T15:44:16.853Z,40.67
2022-08-19T15:46:47.985Z,40.69
2022-08-19T15:49:19.251Z,40.68
2022-08-19T15:51:52.618Z,40.65
2022-08-19T15:54:22.608Z,40.62
2022-08-19T15:57:27.946Z,40.57
2022-08-19T16:00:15.252Z,40.48
2022-08-19T16:03:33.427Z,40.36
2022-08-19T16:06:27.452Z,40.21
2022-08-19T16:08:58.980Z,40.09
2022-08-19T16:11:33.045Z,39.99
2022-08-19T16:14:03.718Z,39.93
2022-08-19T16:16:38.199Z,39.85
2022-08-19T16:19:10.660Z,39.75
2022-08-19T16:21:54.392Z,39.68
2022-08-19T16:24:27.912Z,39.61
2022-08-19T16:26:59.073Z,39.50
2022-08-19T16:29:33.711Z,39.43
2022-08-19T16:32:12.488Z,39.34
2022-08-19T16:35:06.762Z,39.24
2022-08-19T16:37:44.979Z,39.14
2022-08-19T16:40:19.672Z,39.05
2022-08-19T16:42:53.153Z,38.90
2022-08-19T16:45:42.866Z,38.73
2022-08-19T16:48:59.480Z,38.51
2022-08-19T16:52:17.572Z,38.30
2022-08-19T16:55:57.476Z,38.10
2022-08-19T16:58:28.425Z,37.92
2022-08-19T17:01:17.875Z,37.72
2022-08-19T17:03:52.291Z,37.47
2022-08-19T17:06:32.384Z,37.25
2022-08-19T17:09:26.151Z,37.08
2022-08-19T17:12:34.547Z,36.92
2022-08-19T17:15:12.439Z,36.72
2022-08-19T17:17:49.922Z,36.58
2022-08-19T17:20:25.274Z,36.42
2022-08-19T17:23:14.402Z,36.28
2022-08-19T17:25:46.868Z,36.14
2022-08-19T17:28:28.329Z,36.00
2022-08-19T17:31:14.727Z,35.83
2022-08-19T17:38:18.687Z,35.48
2022-08-19T17:40:48.855Z,35.35
2022-08-19T17:43:33.846Z,35.20
2022-08-19T17:46:23.778Z,35.08
2022-08-19T17:49:00.722Z,34.95
2022-08-19T17:51:42.101Z,34.84
2022-08-19T17:54:15.158Z,34.70
2022-08-19T17:56:45.813Z,34.60
2022-08-19T17:59:19.473Z,34.49
2022-08-19T18:01:53.889Z,34.38
2022-08-19T18:04:28.960Z,34.27
2022-08-19T18:07:03.991Z,34.17
2022-08-19T18:09:42.155Z,34.08
2022-08-19T18:12:15.788Z,33.94
2022-08-19T18:14:47.023Z,33.81
2022-08-19T18:17:18.784Z,33.70
2022-08-19T18:19:49.551Z,33.62
2022-08-19T18:22:27.364Z,33.51
2022-08-19T18:24:58.190Z,33.40
2022-08-19T18:27:47.167Z,33.31
2022-08-19T18:30:35.861Z,33.22
2022-08-19T18:38:48.458Z,33.01
2022-08-19T18:42:34.293Z,32.92
2022-08-19T18:45:30.889Z,32.84
2022-08-19T18:48:49.844Z,32.75
2022-08-19T18:54:25.875Z,32.62
2022-08-19T18:57:15.965Z,32.56
2022-08-19T18:59:48.745Z,32.51
2022-08-19T19:02:20.836Z,32.47
2022-08-19T19:04:50.517Z,32.40
2022-08-19T19:07:20.743Z,32.33
2022-08-19T19:10:04.727Z,32.29
2022-08-19T19:12:36.966Z,32.23
2022-08-19T19:15:21.114Z,32.15
2022-08-19T19:17:51.287Z,32.09
2022-08-19T19:20:20.584Z,32.03
2022-08-19T19:22:50.125Z,31.97
2022-08-19T19:25:19.988Z,31.90
2022-08-19T19:27:49.601Z,31.83
2022-08-19T19:30:23.420Z,31.70
2022-08-19T19:32:55.375Z,31.57
2022-08-19T19:35:29.586Z,31.40
2022-08-19T19:38:01.300Z,31.27
2022-08-19T19:40:32.192Z,31.18
2022-08-19T19:43:04.227Z,31.09
2022-08-19T19:45:34.162Z,31.03
2022-08-19T19:48:04.054Z,30.97
2022-08-19T19:50:33.581Z,30.91
2022-08-19T19:53:03.060Z,30.84
2022-08-19T19:56:06.054Z,30.76
2022-08-19T19:58:40.732Z,30.67
2022-08-19T20:01:21.782Z,30.59
2022-08-19T20:03:55.941Z,30.52
2022-08-19T20:06:28.567Z,30.43
2022-08-19T20:09:10.515Z,30.38
2022-08-19T20:11:49.142Z,30.35
2022-08-19T20:14:29.654Z,30.29
2022-08-19T20:17:00.601Z,30.23
2022-08-19T20:19:36.223Z,30.16
2022-08-19T20:22:13.422Z,30.07
2022-08-19T20:24:46.177Z,29.97
2022-08-19T20:27:17.240Z,29.91
2022-08-19T20:29:50.372Z,29.88
2022-08-19T20:32:23.780Z,29.85
2022-08-19T20:34:53.135Z,29.79
2022-08-19T20:37:25.715Z,29.71
2022-08-19T20:40:00.408Z,29.63
2022-08-19T20:42:29.873Z,29.55
2022-08-19T20:45:07.819Z,29.49
2022-08-19T20:47:48.484Z,29.47
2022-08-19T20:50:18.352Z,29.43
2022-08-19T20:52:50.197Z,29.42
2022-08-19T20:55:23.014Z,29.42
2022-08-19T20:57:52.184Z,29.41
2022-08-19T21:00:25.520Z,29.39
2022-08-19T21:02:56.671Z,29.38
2022-08-19T21:05:30.183Z,29.36
2022-08-19T21:07:59.895Z,29.33
2022-08-19T21:10:33.783Z,29.28
2022-08-19T21:13:04.232Z,29.23
2022-08-19T21:15:33.760Z,29.19
2022-08-19T21:18:03.047Z,29.18
2022-08-19T21:20:32.562Z,29.13
2022-08-19T21:23:21.800Z,29.07
2022-08-19T21:26:02.497Z,29.06
2022-08-19T21:28:35.877Z,29.08
2022-08-19T21:31:09.806Z,29.07
2022-08-19T21:33:41.415Z,29.05
2022-08-19T21:36:10.959Z,29.05
2022-08-19T21:38:41.112Z,29.06
2022-08-19T21:41:10.984Z,29.06
2022-08-19T21:43:40.382Z,29.06
2022-08-19T21:46:09.817Z,29.03
2022-08-19T21:48:42.146Z,28.95
2022-08-19T21:51:14.564Z,28.88
2022-08-19T21:53:46.134Z,28.84
2022-08-19T21:56:18.299Z,28.76
2022-08-19T21:58:49.541Z,28.67
2022-08-19T22:01:18.938Z,28.60
2022-08-19T22:03:48.337Z,28.53
2022-08-19T22:06:21.265Z,28.55
2022-08-19T22:08:50.487Z,28.53
2022-08-19T22:11:24.803Z,28.43
2022-08-19T22:13:56.912Z,28.34
2022-08-19T22:16:32.448Z,28.35
2022-08-19T22:19:06.117Z,28.38
2022-08-19T22:21:40.936Z,28.40
2022-08-19T22:24:10.838Z,28.39
2022-08-19T22:26:39.858Z,28.39
2022-08-19T22:29:09.960Z,28.40
2022-08-19T22:31:39.935Z,28.44
2022-08-19T22:34:11.589Z,28.47
2022-08-19T22:36:40.683Z,28.48
2022-08-19T22:39:09.872Z,28.44
2022-08-19T22:41:40.225Z,28.44
2022-08-19T22:44:11.037Z,28.45
2022-08-19T22:46:40.155Z,28.45
2022-08-19T22:49:09.274Z,28.44
2022-08-19T22:51:59.116Z,28.38
2022-08-19T22:54:28.700Z,28.35
2022-08-19T22:56:57.871Z,28.34
2022-08-19T22:59:26.913Z,28.30
2022-08-19T23:01:56.399Z,28.27
2022-08-19T23:04:25.562Z,28.28
2022-08-19T23:06:59.764Z,28.28
2022-08-19T23:09:43.927Z,28.28
2022-08-19T23:12:33.787Z,28.28
2022-08-19T23:15:25.147Z,28.28
2022-08-19T23:18:04.725Z,28.26
2022-08-19T23:20:41.894Z,28.23
2022-08-19T23:23:28.823Z,28.24
2022-08-19T23:31:01.718Z,28.28
2022-08-19T23:35:32.865Z,28.28
2022-08-19T23:38:22.857Z,28.31
2022-08-19T23:45:37.662Z,28.31
2022-08-19T23:48:54.451Z,28.26
2022-08-19T23:52:24.990Z,28.18
2022-08-19T23:55:47.229Z,28.15
